createdAt,value
2022-09-03T00:09:41.568Z,11.13
2022-09-03T00:19:53.652Z,11.09
2022-09-03T00:30:05.326Z,10.99
2022-09-03T00:40:28.510Z,11.00
2022-09-03T00:50:47.639Z,10.99
2022-09-03T01:00:54.293Z,10.90
2022-09-03T01:11:10.858Z,10.78
2022-09-03T01:21:41.669Z,10.62
2022-09-03T01:32:00.173Z,10.56
2022-09-03T01:42:21.085Z,10.48
2022-09-03T01:52:42.166Z,10.35
2022-09-03T02:02:51.543Z,10.26
2022-09-03T02:13:00.976Z,10.24
2022-09-03T02:23:06.933Z,10.13
2022-09-03T02:33:13.766Z,9.99
2022-09-03T02:43:25.997Z,9.84
2022-09-03T02:53:31.873Z,9.71
2022-09-03T03:03:37.734Z,9.64
2022-09-03T03:13:43.550Z,9.63
2022-09-03T03:23:49.808Z,9.56
2022-09-03T03:33:58.242Z,9.51
2022-09-03T03:44:06.176Z,9.58
2022-09-03T03:54:11.876Z,9.57
2022-09-03T04:04:23.458Z,9.53
2022-09-03T04:14:29.469Z,9.51
2022-09-03T04:24:35.937Z,9.53
2022-09-03T04:34:41.640Z,9.66
2022-09-03T04:44:47.437Z,9.89
2022-09-03T04:54:53.153Z,10.12
2022-09-03T05:04:59.052Z,10.45
2022-09-03T05:15:05.492Z,10.98
2022-09-03T05:25:11.809Z,13.80
2022-09-03T05:35:17.734Z,22.58
2022-09-03T05:45:23.473Z,28.46
2022-09-03T05:55:30.051Z,32.05
2022-09-03T06:05:35.762Z,34.86
2022-09-03T06:15:41.481Z,36.09
2022-09-03T06:25:47.171Z,38.88
2022-09-03T06:35:59.503Z,40.19
2022-09-03T06:46:07.165Z,40.36
2022-09-03T06:56:14.445Z,42.80
2022-09-03T07:06:21.791Z,43.26
2022-09-03T07:16:29.431Z,44.09
2022-09-03T07:26:38.167Z,42.81
2022-09-03T07:36:46.997Z,42.42
2022-09-03T07:46:54.674Z,43.56
2022-09-03T07:57:00.354Z,43.47
2022-09-03T08:07:06.032Z,43.19
2022-09-03T08:17:12.767Z,42.50
2022-09-03T08:27:25.520Z,42.75
2022-09-03T08:37:33.130Z,40.85
2022-09-03T08:47:44.253Z,31.81
2022-09-03T08:57:52.481Z,26.51
2022-09-03T09:08:12.617Z,24.41
2022-09-03T09:18:25.241Z,23.23
2022-09-03T09:28:35.909Z,22.56
2022-09-03T09:38:42.877Z,22.03
2022-09-03T09:48:53.854Z,21.60
2022-09-03T09:59:08.739Z,21.40
2022-09-03T10:09:16.725Z,21.09
2022-09-03T10:19:24.784Z,20.96
2022-09-03T10:29:30.573Z,20.56
2022-09-03T10:39:52.475Z,20.30
2022-09-03T10:50:04.609Z,20.27
2022-09-03T11:00:13.230Z,20.05
2022-09-03T11:10:25.018Z,19.86
2022-09-03T11:20:37.340Z,19.72
2022-09-03T11:30:57.565Z,19.71
2022-09-03T11:41:16.046Z,19.86
2022-09-03T11:51:37.793Z,20.04
2022-09-03T12:01:52.459Z,20.14
2022-09-03T12:12:10.421Z,20.22
2022-09-03T12:22:20.898Z,20.25
2022-09-03T12:32:27.759Z,20.07
2022-09-03T12:42:35.212Z,20.23
2022-09-03T12:52:44.299Z,20.36
2022-09-03T13:02:57.010Z,20.31
2022-09-03T13:13:08.395Z,20.32
2022-09-03T13:23:26.815Z,20.58
2022-09-03T13:33:39.014Z,20.56
2022-09-03T13:43:48.500Z,20.58
2022-09-03T13:54:07.004Z,20.66
2022-09-03T14:04:23.068Z,21.11
2022-09-03T14:14:42.674Z,20.65
2022-09-03T14:24:53.779Z,20.52
2022-09-03T14:35:34.112Z,20.52
2022-09-03T14:46:05.045Z,20.41
2022-09-03T14:56:26.358Z,20.24
2022-09-03T15:06:53.777Z,20.11
2022-09-03T15:17:21.480Z,19.88
2022-09-03T15:28:00.408Z,19.72
2022-09-03T15:38:12.062Z,19.45
2022-09-03T15:48:27.968Z,19.08
2022-09-03T15:58:38.739Z,18.87
2022-09-03T16:08:50.522Z,18.95
2022-09-03T16:19:06.784Z,18.78
2022-09-03T16:29:15.589Z,18.53
2022-09-03T16:39:34.496Z,18.25
2022-09-03T16:49:54.520Z,18.06
2022-09-03T17:00:11.325Z,17.97
2022-09-03T17:10:29.087Z,17.77
2022-09-03T17:20:54.270Z,17.48
2022-09-03T17:31:10.239Z,17.13
2022-09-03T17:41:29.974Z,16.75
2022-09-03T17:51:46.179Z,16.43
2022-09-03T18:02:01.834Z,16.23
2022-09-03T18:12:16.784Z,16.11
2022-09-03T18:22:45.176Z,15.96
2022-09-03T18:33:08.524Z,15.84
2022-09-03T18:43:38.418Z,15.86
2022-09-03T18:54:15.585Z,15.92
2022-09-03T19:04:50.143Z,15.93
2022-09-03T19:15:20.146Z,15.90
2022-09-03T19:25:45.144Z,15.84
2022-09-03T19:36:19.189Z,15.83
2022-09-03T19:46:55.396Z,15.82
2022-09-03T19:57:18.901Z,15.82
2022-09-03T20:07:43.032Z,15.77
2022-09-03T20:18:02.516Z,15.64
2022-09-03T20:28:19.727Z,15.52
2022-09-03T20:38:57.884Z,15.48
2022-09-03T20:49:13.064Z,15.42
2022-09-03T20:59:30.820Z,15.22
2022-09-03T21:09:48.527Z,15.02
2022-09-03T21:20:09.935Z,14.84
2022-09-03T21:30:19.144Z,14.72
2022-09-03T21:40:29.283Z,14.59
2022-09-03T21:50:54.024Z,14.33
2022-09-03T22:01:06.821Z,14.07
2022-09-03T22:11:20.208Z,13.87
2022-09-03T22:21:33.089Z,13.64
2022-09-03T22:31:50.837Z,13.43
2022-09-03T22:42:10.808Z,13.30
2022-09-03T22:52:29.919Z,13.26
2022-09-03T23:02:35.620Z,13.28
2022-09-03T23:12:46.254Z,13.23
2022-09-03T23:23:00.427Z,13.20
2022-09-03T23:33:06.477Z,13.13
2022-09-03T23:43:38.609Z,13.16
2022-09-03T23:53:53.881Z,13.12
